createdAt,value
2018-08-25T00:00:40.851Z,60.7
2018-08-25T00:01:30.911Z,60.7
2018-08-25T00:02:20.942Z,60.7
2018-08-25T00:03:11.293Z,60.7
2018-08-25T00:04:00.808Z,60.7
2018-08-25T00:04:51.741Z,60.7
2018-08-25T00:05:41.753Z,60.6
2018-08-25T00:06:31.288Z,60.6
2018-08-25T00:07:21.622Z,60.6
2018-08-25T00:08:11.423Z,60.6
2018-08-25T00:09:01.808Z,60.6
2018-08-25T00:09:51.560Z,60.6
2018-08-25T00:10:42.470Z,60.6
2018-08-25T00:11:31.653Z,60.6
2018-08-25T00:12:22.045Z,60.6
2018-08-25T00:31:17.970Z,60.3
2018-08-25T00:32:07.702Z,60.3
2018-08-25T00:32:57.784Z,60.3
2018-08-25T00:33:48.136Z,60.3
2018-08-25T00:34:38.199Z,60.3
2018-08-25T00:35:28.247Z,60.2
2018-08-25T00:36:18.298Z,60.2
2018-08-25T00:37:08.654Z,60.2
2018-08-25T00:37:58.444Z,60.2
2018-08-25T00:38:49.052Z,60.2
2018-08-25T00:39:38.876Z,60.1
2018-08-25T00:40:28.639Z,60.1
2018-08-25T00:41:19.243Z,60.1
2018-08-25T00:42:08.816Z,60.1
2018-08-25T00:42:57.985Z,60.1
2018-08-25T00:43:49.143Z,60.1
2018-08-25T00:44:38.703Z,60.1
2018-08-25T00:45:28.446Z,60.1
2018-08-25T00:46:19.367Z,60.1
2018-08-25T00:47:09.688Z,60.1
2018-08-25T00:47:59.682Z,60
2018-08-25T00:48:49.300Z,60
2018-08-25T00:49:39.111Z,60
2018-08-25T00:50:29.705Z,60
2018-08-25T00:51:19.491Z,60
2018-08-25T00:52:08.976Z,60
2018-08-25T00:52:59.320Z,59.9
2018-08-25T00:53:49.398Z,59.9
2018-08-25T00:54:39.169Z,59.9
2018-08-25T00:55:30.100Z,59.9
2018-08-25T00:56:19.609Z,59.9
2018-08-25T00:57:10.238Z,59.9
2018-08-25T00:57:59.674Z,59.9
2018-08-25T00:58:50.075Z,59.9
2018-08-25T00:59:39.578Z,59.9
2018-08-25T01:00:30.198Z,59.9
2018-08-25T01:01:20.261Z,59.9
2018-08-25T01:02:10.606Z,59.8
2018-08-25T01:03:00.115Z,59.8
2018-08-25T01:03:50.421Z,59.8
2018-08-25T01:04:40.503Z,59.8
2018-08-25T01:05:30.310Z,59.8
2018-08-25T01:06:19.784Z,59.8
2018-08-25T01:07:10.646Z,59.8
2018-08-25T01:08:01.127Z,59.8
2018-08-25T01:08:50.575Z,59.8
2018-08-25T01:09:40.624Z,59.8
2018-08-25T01:10:31.259Z,59.7
2018-08-25T01:11:20.734Z,59.7
2018-08-25T01:12:10.897Z,59.7
2018-08-25T01:13:01.177Z,59.7
2018-08-25T01:13:51.237Z,59.6
2018-08-25T01:14:41.377Z,59.6
2018-08-25T01:15:31.238Z,59.6
2018-08-25T01:16:21.414Z,59.6
2018-08-25T01:17:11.502Z,59.6
2018-08-25T01:18:01.528Z,59.6
2018-08-25T01:18:51.904Z,59.6
2018-08-25T01:19:41.212Z,59.6
2018-08-25T01:20:31.793Z,59.6
2018-08-25T01:21:21.253Z,59.6
2018-08-25T01:22:11.861Z,59.5
2018-08-25T01:23:02.479Z,59.6
2018-08-25T01:23:51.983Z,59.6
2018-08-25T01:24:41.785Z,59.5
2018-08-25T01:25:32.444Z,59.5
2018-08-25T01:26:22.212Z,59.5
2018-08-25T01:27:11.965Z,59.4
2018-08-25T01:28:02.053Z,59.4
2018-08-25T01:28:52.108Z,59.4
2018-08-25T01:29:41.903Z,59.4
2018-08-25T01:30:32.829Z,59.4
2018-08-25T01:31:22.296Z,59.4
2018-08-25T01:32:12.750Z,59.4
2018-08-25T01:33:02.691Z,59.4
2018-08-25T01:33:52.755Z,59.4
2018-08-25T01:34:42.549Z,59.4
2018-08-25T01:35:33.207Z,59.4
2018-08-25T01:36:22.973Z,59.3
2018-08-25T01:37:12.765Z,59.3
2018-08-25T01:38:03.374Z,59.3
2018-08-25T01:38:52.878Z,59.3
2018-08-25T01:39:43.545Z,59.3
2018-08-25T01:40:33.285Z,59.3
2018-08-25T01:41:23.371Z,59.3
2018-08-25T01:42:12.895Z,59.3
2018-08-25T01:43:03.798Z,59.3
2018-08-25T01:43:53.554Z,59.3
2018-08-25T01:44:44.200Z,59.2
2018-08-25T01:45:33.673Z,59.3
2018-08-25T01:46:23.779Z,59.2
2018-08-25T01:47:14.123Z,59.2
2018-08-25T01:48:03.583Z,59.2
2018-08-25T01:48:53.611Z,59.1
2018-08-25T01:49:43.747Z,59.1
2018-08-25T01:50:34.108Z,59.1
2018-08-25T01:51:23.592Z,59.1
2018-08-25T01:52:14.512Z,59.1
2018-08-25T01:53:04.239Z,59.1
2018-08-25T01:53:54.597Z,59.1
2018-08-25T01:54:44.403Z,59.1
2018-08-25T01:55:34.445Z,59.1
2018-08-25T01:56:24.532Z,59.1
2018-08-25T01:57:14.611Z,59.1
2018-08-25T01:58:04.404Z,59
2018-08-25T01:58:54.752Z,59
2018-08-25T01:59:44.799Z,59
2018-08-25T02:00:35.101Z,59
2018-08-25T02:01:24.937Z,58.9
2018-08-25T02:02:14.985Z,58.9
2018-08-25T02:03:05.354Z,58.9
2018-08-25T02:03:55.353Z,58.9
2018-08-25T02:04:45.180Z,58.9
2018-08-25T02:05:35.230Z,58.9
2018-08-25T02:06:25.332Z,58.9
2018-08-25T02:07:15.101Z,58.9
2018-08-25T02:08:05.438Z,58.9
2018-08-25T02:08:55.793Z,58.9
2018-08-25T02:09:45.625Z,58.8
2018-08-25T02:10:35.128Z,58.9
2018-08-25T02:11:25.691Z,58.8
2018-08-25T02:12:15.178Z,58.8
2018-08-25T02:13:05.845Z,58.8
2018-08-25T02:13:56.118Z,58.8
2018-08-25T02:14:45.374Z,58.8
2018-08-25T02:15:35.961Z,58.8
2018-08-25T02:16:26.391Z,58.8
2018-08-25T02:17:16.147Z,58.8
2018-08-25T02:18:05.913Z,58.8
2018-08-25T02:18:56.535Z,58.8
2018-08-25T02:19:46.067Z,58.8
2018-08-25T02:20:36.380Z,58.7
2018-08-25T02:21:26.179Z,58.7
2018-08-25T02:22:16.800Z,58.7
2018-08-25T02:23:06.872Z,58.7
2018-08-25T02:23:56.382Z,58.7
2018-08-25T02:24:46.697Z,58.6
2018-08-25T02:25:36.224Z,58.6
2018-08-25T02:26:27.157Z,58.6
2018-08-25T02:27:17.203Z,58.6
2018-08-25T02:28:07.428Z,58.6
2018-08-25T02:28:57.086Z,58.6
2018-08-25T02:33:07.100Z,58.5
2018-08-25T02:33:57.451Z,58.5
2018-08-25T02:34:47.530Z,58.5
2018-08-25T02:35:37.833Z,58.5
2018-08-25T02:36:27.627Z,58.5
2018-08-25T02:37:17.701Z,58.5
2018-08-25T02:38:07.497Z,58.4
2018-08-25T02:38:57.267Z,58.4
2018-08-25T02:39:47.841Z,58.4
2018-08-25T02:40:37.494Z,58.4
2018-08-25T02:41:27.775Z,58.4
2018-08-25T02:42:18.668Z,58.4
2018-08-25T02:43:08.146Z,58.4
2018-08-25T02:43:57.671Z,58.4
2018-08-25T02:44:48.055Z,58.4
2018-08-25T02:45:38.971Z,58.4
2018-08-25T02:46:28.417Z,58.4
2018-08-25T02:47:18.746Z,58.4
2018-08-25T02:48:08.568Z,58.3
2018-08-25T02:48:58.303Z,58.3
2018-08-25T02:49:48.675Z,58.3
2018-08-25T02:50:38.724Z,58.3
2018-08-25T02:51:28.606Z,58.3
2018-08-25T02:52:18.839Z,58.3
2018-08-25T02:53:08.912Z,58.3
2018-08-25T02:53:58.702Z,58.3
2018-08-25T02:54:49.293Z,58.3
2018-08-25T02:55:39.115Z,58.3
2018-08-25T02:56:29.477Z,58.2
2018-08-25T02:57:19.254Z,58.2
2018-08-25T02:58:08.471Z,58.2
2018-08-25T02:58:59.399Z,58.2
2018-08-25T02:59:49.486Z,58.2
2018-08-25T03:00:39.521Z,58.2
2018-08-25T03:01:29.300Z,58.2
2018-08-25T03:02:19.349Z,58.1
2018-08-25T03:03:09.424Z,58.1
2018-08-25T03:04:00.059Z,58.1
2018-08-25T03:04:49.841Z,58.1
2018-08-25T03:05:39.881Z,58.1
2018-08-25T03:06:29.960Z,58.1
2018-08-25T03:07:20.316Z,58.1
2018-08-25T03:08:10.392Z,58.1
2018-08-25T03:09:00.433Z,58
2018-08-25T03:09:50.510Z,58
2018-08-25T03:10:40.568Z,58
2018-08-25T03:11:30.083Z,58
2018-08-25T03:12:20.691Z,58
2018-08-25T03:13:10.180Z,58
2018-08-25T03:14:00.873Z,57.9
2018-08-25T03:14:50.326Z,57.9
2018-08-25T03:15:39.792Z,57.9
2018-08-25T03:16:30.764Z,57.9
2018-08-25T03:17:20.832Z,57.9
2018-08-25T03:18:10.858Z,57.9
2018-08-25T03:19:00.670Z,57.9
2018-08-25T03:19:51.018Z,57.9
2018-08-25T03:20:40.909Z,57.9
2018-08-25T03:21:30.845Z,57.9
2018-08-25T03:22:21.160Z,57.9
2018-08-25T03:23:11.544Z,57.8
2018-08-25T03:24:01.660Z,57.8
2018-08-25T03:24:51.677Z,57.8
2018-08-25T03:25:41.194Z,57.8
2018-08-25T03:26:32.310Z,57.8
2018-08-25T03:27:21.883Z,57.8
2018-08-25T03:28:11.932Z,57.8
2018-08-25T03:32:22.354Z,57.7
2018-08-25T03:33:12.034Z,57.7
2018-08-25T03:34:02.101Z,57.7
2018-08-25T03:34:51.598Z,57.7
2018-08-25T03:35:42.206Z,57.7
2018-08-25T03:36:32.007Z,57.7
2018-08-25T03:37:22.334Z,57.6
2018-08-25T03:38:12.691Z,57.6
2018-08-25T03:39:02.506Z,57.6
2018-08-25T03:39:52.564Z,57.6
2018-08-25T03:40:42.925Z,57.6
2018-08-25T03:41:32.394Z,57.6
2018-08-25T03:42:23.069Z,57.6
2018-08-25T03:43:12.557Z,57.6
2018-08-25T03:44:03.188Z,57.6
2018-08-25T03:44:52.671Z,57.6
2018-08-25T03:45:43.295Z,57.5
2018-08-25T03:46:32.513Z,57.5
2018-08-25T03:47:22.966Z,57.4
2018-08-25T03:48:12.906Z,57.4
2018-08-25T03:49:02.455Z,57.3
2018-08-25T03:49:53.655Z,57.3
2018-08-25T03:50:44.162Z,57.3
2018-08-25T03:51:32.890Z,57.3
2018-08-25T03:52:23.548Z,57.3
2018-08-25T03:53:13.628Z,57.3
2018-08-25T03:54:02.506Z,57.3
2018-08-25T03:54:54.003Z,57.2
2018-08-25T03:55:43.785Z,57.3
2018-08-25T03:56:34.180Z,57.2
2018-08-25T03:57:23.907Z,57.2
2018-08-25T03:58:13.132Z,57.2
2018-08-25T03:59:04.348Z,57.2
2018-08-25T03:59:53.540Z,57.2
2018-08-25T04:00:44.701Z,57.1
2018-08-25T04:01:35.115Z,57.1
2018-08-25T04:02:24.565Z,57.1
2018-08-25T04:03:14.388Z,57.1
2018-08-25T04:04:04.694Z,57.1
2018-08-25T04:04:54.784Z,57.1
2018-08-25T04:05:44.540Z,57.1
2018-08-25T04:06:34.883Z,57.1
2018-08-25T04:07:24.684Z,57.1
2018-08-25T04:08:14.747Z,57.1
2018-08-25T04:09:05.097Z,57
2018-08-25T04:09:53.995Z,57.1
2018-08-25T04:10:44.978Z,57
2018-08-25T04:11:35.301Z,57
2018-08-25T04:12:23.898Z,57
2018-08-25T04:13:15.421Z,56.9
2018-08-25T04:14:05.426Z,56.9
2018-08-25T04:14:56.499Z,56.9
2018-08-25T04:15:45.070Z,56.9
2018-08-25T04:16:34.825Z,56.9
2018-08-25T04:17:25.782Z,56.9
2018-08-25T04:18:15.544Z,56.9
2018-08-25T04:19:05.592Z,56.9
2018-08-25T04:19:55.689Z,56.8
2018-08-25T04:20:46.009Z,56.8
2018-08-25T04:21:35.786Z,56.8
2018-08-25T04:22:26.394Z,56.8
2018-08-25T04:23:15.643Z,56.8
2018-08-25T04:24:05.688Z,56.8
2018-08-25T04:24:56.331Z,56.8
2018-08-25T04:25:45.929Z,56.8
2018-08-25T04:26:36.196Z,56.7
2018-08-25T04:27:25.996Z,56.7
2018-08-25T04:28:16.600Z,56.7
2018-08-25T04:29:06.395Z,56.7
2018-08-25T04:29:56.696Z,56.7
2018-08-25T04:30:46.805Z,56.7
2018-08-25T04:31:36.316Z,56.6
2018-08-25T04:32:26.880Z,56.6
2018-08-25T04:33:17.127Z,56.6
2018-08-25T04:34:06.757Z,56.6
2018-08-25T04:34:57.127Z,56.5
2018-08-25T04:35:47.198Z,56.5
2018-08-25T04:36:37.223Z,56.4
2018-08-25T04:37:27.229Z,56.4
2018-08-25T04:38:17.114Z,56.5
2018-08-25T04:39:07.412Z,56.4
2018-08-25T04:39:57.458Z,56.4
2018-08-25T04:40:47.260Z,56.4
2018-08-25T04:41:37.035Z,56.4
2018-08-25T04:42:27.939Z,56.4
2018-08-25T05:00:26.035Z,56.1
2018-08-25T05:01:15.910Z,56.1
2018-08-25T05:02:06.371Z,56.1
2018-08-25T05:02:56.032Z,56
2018-08-25T05:03:46.115Z,56
2018-08-25T05:04:35.733Z,56
2018-08-25T05:05:26.141Z,56
2018-08-25T05:06:16.299Z,55.9
2018-08-25T05:07:06.321Z,55.9
2018-08-25T05:07:56.411Z,55.9
2018-08-25T05:08:46.429Z,55.9
2018-08-25T05:09:36.062Z,55.9
2018-08-25T05:10:26.372Z,55.9
2018-08-25T05:11:16.644Z,55.9
2018-08-25T05:12:06.429Z,55.9
2018-08-25T05:12:56.806Z,55.8
2018-08-25T05:13:46.518Z,55.8
2018-08-25T05:14:36.926Z,55.8
2018-08-25T05:15:26.985Z,55.8
2018-08-25T05:16:17.332Z,55.8
2018-08-25T05:17:07.101Z,55.8
2018-08-25T05:17:57.174Z,55.8
2018-08-25T05:18:47.179Z,55.8
2018-08-25T05:19:37.606Z,55.8
2018-08-25T05:20:27.073Z,55.8
2018-08-25T05:21:17.152Z,55.8
2018-08-25T05:22:08.480Z,55.8
2018-08-25T05:22:57.833Z,55.7
2018-08-25T05:23:47.895Z,55.7
2018-08-25T05:24:37.981Z,55.7
2018-08-25T05:25:27.992Z,55.7
2018-08-25T05:26:18.088Z,55.6
2018-08-25T05:27:07.586Z,55.6
2018-08-25T05:27:58.225Z,55.6
2018-08-25T05:28:48.257Z,55.6
2018-08-25T05:29:38.360Z,55.6
2018-08-25T05:30:28.106Z,55.6
2018-08-25T05:31:17.895Z,55.6
2018-08-25T05:32:08.561Z,55.6
2018-08-25T05:32:58.321Z,55.6
2018-08-25T05:33:48.383Z,55.6
2018-08-25T05:34:38.496Z,55.6
2018-08-25T05:35:28.251Z,55.5
2018-08-25T05:36:18.872Z,55.5
2018-08-25T05:37:08.599Z,55.5
2018-08-25T05:37:58.434Z,55.5
2018-08-25T05:38:49.024Z,55.5
2018-08-25T05:39:38.559Z,55.5
2018-08-25T05:40:28.613Z,55.4
2018-08-25T05:41:19.005Z,55.4
2018-08-25T05:42:09.024Z,55.4
2018-08-25T05:42:59.370Z,55.4
2018-08-25T05:43:49.438Z,55.4
2018-08-25T05:44:38.742Z,55.4
2018-08-25T05:45:29.320Z,55.4
2018-08-25T05:46:19.082Z,55.4
2018-08-25T05:47:09.956Z,55.4
2018-08-25T05:47:58.917Z,55.4
2018-08-25T05:48:49.018Z,55.3
2018-08-25T05:49:39.060Z,55.3
2018-08-25T05:50:29.656Z,55.3
2018-08-25T05:51:20.009Z,55.3
2018-08-25T05:52:10.136Z,55.3
2018-08-25T05:53:00.399Z,55.3
2018-08-25T05:53:49.939Z,55.3
2018-08-25T05:54:40.549Z,55.3
2018-08-25T05:55:30.323Z,55.3
2018-08-25T05:56:20.115Z,55.3
2018-08-25T05:57:10.191Z,55.3
2018-08-25T05:58:00.847Z,55.2
2018-08-25T05:58:50.624Z,55.3
2018-08-25T05:59:40.679Z,55.2
2018-08-25T06:00:30.429Z,55.2
2018-08-25T06:01:20.212Z,55.2
2018-08-25T06:02:10.297Z,55.2
2018-08-25T06:03:00.909Z,55.1
2018-08-25T06:03:50.669Z,55.1
2018-08-25T06:04:40.731Z,55.1
2018-08-25T06:05:31.104Z,55.1
2018-08-25T06:06:20.893Z,55.1
2018-08-25T06:07:10.928Z,55.1
2018-08-25T06:08:00.534Z,55.1
2018-08-25T06:08:51.397Z,55.1
2018-08-25T06:09:41.115Z,55.1
2018-08-25T06:10:31.489Z,55.1
2018-08-25T06:11:21.558Z,55.1
2018-08-25T06:12:11.592Z,55.1
2018-08-25T06:13:01.650Z,55
2018-08-25T06:13:51.760Z,55
2018-08-25T06:14:42.041Z,55
2018-08-25T06:15:31.838Z,55
2018-08-25T06:16:21.322Z,55
2018-08-25T06:17:11.960Z,54.9
2018-08-25T06:18:01.765Z,54.9
2018-08-25T06:18:52.336Z,54.9
2018-08-25T06:19:42.157Z,54.9
2018-08-25T06:20:32.256Z,54.9
2018-08-25T06:21:22.041Z,54.9
2018-08-25T06:22:12.083Z,54.9
2018-08-25T06:23:02.192Z,54.9
2018-08-25T06:23:51.700Z,54.9
2018-08-25T06:24:42.279Z,54.9
2018-08-25T06:25:32.051Z,54.8
2018-08-25T06:26:21.826Z,54.8
2018-08-25T06:27:12.833Z,54.8
2018-08-25T06:28:03.086Z,54.8
2018-08-25T06:28:52.823Z,54.8
2018-08-25T06:29:43.236Z,54.8
2018-08-25T06:30:33.016Z,54.8
2018-08-25T06:31:22.785Z,54.8
2018-08-25T06:32:12.589Z,54.8
2018-08-25T06:33:03.161Z,54.8
2018-08-25T06:33:52.713Z,54.8
2018-08-25T06:34:43.312Z,54.8
2018-08-25T06:35:32.516Z,54.8
2018-08-25T06:36:23.460Z,54.7
2018-08-25T06:37:13.239Z,54.7
2018-08-25T06:38:03.443Z,54.7
2018-08-25T06:38:53.347Z,54.7
2018-08-25T06:39:43.677Z,54.7
2018-08-25T06:40:33.718Z,54.6
2018-08-25T06:41:23.523Z,54.6
2018-08-25T06:42:13.882Z,54.6
2018-08-25T06:43:03.670Z,54.6
2018-08-25T06:43:53.712Z,54.6
2018-08-25T06:44:43.507Z,54.6
2018-08-25T06:45:33.852Z,54.6
2018-08-25T06:46:24.243Z,54.6
2018-08-25T06:47:13.989Z,54.6
2018-08-25T06:48:04.589Z,54.6
2018-08-25T06:48:54.414Z,54.6
2018-08-25T06:49:43.894Z,54.6
2018-08-25T06:50:34.811Z,54.5
2018-08-25T06:51:24.588Z,54.5
2018-08-25T06:52:14.645Z,54.5
2018-08-25T06:53:04.488Z,54.5
2018-08-25T06:53:54.208Z,54.5
2018-08-25T06:54:43.707Z,54.4
2018-08-25T06:55:34.888Z,54.4
2018-08-25T06:56:24.701Z,54.4
2018-08-25T06:57:15.053Z,54.4
2018-08-25T06:58:05.168Z,54.4
2018-08-25T06:58:55.203Z,54.4
2018-08-25T06:59:45.244Z,54.4
2018-08-25T07:00:35.032Z,54.4
2018-08-25T07:01:25.354Z,54.4
2018-08-25T07:02:15.117Z,54.4
2018-08-25T07:03:05.208Z,54.4
2018-08-25T07:03:55.257Z,54.4
2018-08-25T07:04:45.278Z,54.4
2018-08-25T07:05:35.894Z,54.3
2018-08-25T07:06:25.480Z,54.3
2018-08-25T07:07:15.558Z,54.3
2018-08-25T07:08:05.866Z,54.3
2018-08-25T07:08:55.657Z,54.3
2018-08-25T07:09:46.280Z,54.3
2018-08-25T07:10:35.722Z,54.3
2018-08-25T07:11:25.550Z,54.3
2018-08-25T07:12:15.876Z,54.3
2018-08-25T07:13:06.191Z,54.3
2018-08-25T07:13:56.042Z,54.3
2018-08-25T07:14:46.605Z,54.2
2018-08-25T07:15:36.364Z,54.2
2018-08-25T07:16:25.337Z,54.2
2018-08-25T07:17:16.539Z,54.2
2018-08-25T07:18:06.319Z,54.2
2018-08-25T07:18:57.186Z,54.2
2018-08-25T07:19:46.743Z,54.1
2018-08-25T07:20:36.277Z,54.1
2018-08-25T07:21:26.381Z,54.1
2018-08-25T07:22:16.998Z,54.1
2018-08-25T07:23:07.036Z,54.1
2018-08-25T07:23:56.234Z,54.1
2018-08-25T07:24:46.897Z,54.1
2018-08-25T07:25:36.632Z,54.1
2018-08-25T07:26:26.555Z,54.1
2018-08-25T07:27:16.763Z,54.1
2018-08-25T07:28:07.387Z,54
2018-08-25T07:28:57.426Z,54.1
2018-08-25T07:29:47.012Z,54
2018-08-25T07:30:37.537Z,54
2018-08-25T07:31:27.603Z,54
2018-08-25T07:32:18.840Z,54
2018-08-25T07:33:07.503Z,54
2018-08-25T07:33:57.569Z,54
2018-08-25T07:34:48.174Z,53.9
2018-08-25T07:35:38.230Z,53.9
2018-08-25T07:36:27.998Z,53.9
2018-08-25T07:37:17.523Z,53.9
2018-08-25T07:38:08.349Z,53.9
2018-08-25T07:38:57.646Z,53.9
2018-08-25T07:39:48.002Z,53.9
2018-08-25T07:40:38.611Z,53.9
2018-08-25T07:41:28.468Z,53.9
2018-08-25T07:42:18.233Z,53.9
2018-08-25T07:43:08.558Z,53.9
2018-08-25T07:43:58.645Z,53.9
2018-08-25T07:44:48.461Z,53.8
2018-08-25T07:45:38.169Z,53.8
2018-08-25T07:46:28.255Z,53.8
2018-08-25T07:47:18.577Z,53.8
2018-08-25T07:48:08.966Z,53.8
2018-08-25T07:48:58.455Z,53.8
2018-08-25T07:49:49.035Z,53.8
2018-08-25T07:50:38.825Z,53.8
2018-08-25T07:51:29.435Z,53.8
2018-08-25T07:52:18.152Z,53.8
2018-08-25T07:53:09.368Z,53.8
2018-08-25T07:53:59.413Z,53.8
2018-08-25T07:54:48.897Z,53.7
2018-08-25T07:55:39.218Z,53.7
2018-08-25T07:56:29.262Z,53.7
2018-08-25T07:57:19.577Z,53.7
2018-08-25T07:58:09.216Z,53.7
2018-08-25T07:58:59.920Z,53.7
2018-08-25T07:59:49.519Z,53.7
2018-08-25T08:00:39.892Z,53.7
2018-08-25T08:01:29.644Z,53.6
2018-08-25T08:02:19.752Z,53.6
2018-08-25T08:03:09.811Z,53.6
2018-08-25T08:04:00.163Z,53.6
2018-08-25T08:04:50.322Z,53.6
2018-08-25T08:05:41.085Z,53.6
2018-08-25T08:06:29.519Z,53.6
2018-08-25T08:07:20.409Z,53.6
2018-08-25T08:08:10.309Z,53.6
2018-08-25T08:09:00.286Z,53.6
2018-08-25T08:09:50.612Z,53.6
2018-08-25T08:10:40.714Z,53.6
2018-08-25T08:11:29.984Z,53.5
2018-08-25T08:12:21.812Z,53.6
2018-08-25T08:13:10.629Z,53.5
2018-08-25T08:14:00.984Z,53.5
2018-08-25T08:14:50.440Z,53.5
2018-08-25T08:15:41.131Z,53.5
2018-08-25T08:16:31.139Z,53.4
2018-08-25T08:17:20.904Z,53.4
2018-08-25T08:18:10.692Z,53.4
2018-08-25T08:19:01.325Z,53.4
2018-08-25T08:19:51.406Z,53.4
2018-08-25T08:20:40.959Z,53.4
2018-08-25T08:21:30.963Z,53.4
2018-08-25T08:22:20.806Z,53.4
2018-08-25T08:23:11.092Z,53.4
2018-08-25T08:24:00.860Z,53.4
2018-08-25T08:24:51.762Z,53.4
2018-08-25T08:25:41.322Z,53.4
2018-08-25T08:26:31.330Z,53.4
2018-08-25T08:27:21.923Z,53.3
2018-08-25T08:28:12.383Z,53.3
2018-08-25T08:29:01.860Z,53.3
2018-08-25T08:29:52.151Z,53.3
2018-08-25T08:30:41.953Z,53.3
2018-08-25T08:31:31.998Z,53.3
2018-08-25T08:32:22.065Z,53.3
2018-08-25T08:33:13.353Z,53.3
2018-08-25T08:34:02.513Z,53.3
2018-08-25T08:34:52.273Z,53.3
2018-08-25T08:35:42.330Z,53.3
2018-08-25T08:36:32.410Z,53.2
2018-08-25T08:37:22.713Z,53.2
2018-08-25T08:38:12.838Z,53.2
2018-08-25T08:39:02.878Z,53.2
2018-08-25T08:39:52.710Z,53.1
2018-08-25T08:40:43.000Z,53.1
2018-08-25T08:41:33.078Z,53.1
2018-08-25T08:42:24.248Z,53
2018-08-25T08:43:12.951Z,52.9
2018-08-25T08:44:03.283Z,52.9
2018-08-25T08:44:53.323Z,52.9
2018-08-25T08:45:43.410Z,52.8
2018-08-25T08:46:33.198Z,52.8
2018-08-25T08:47:23.567Z,52.8
2018-08-25T08:48:13.334Z,52.7
2018-08-25T08:49:03.420Z,52.7
2018-08-25T08:49:53.613Z,52.8
2018-08-25T08:50:43.522Z,52.8
2018-08-25T08:51:34.127Z,52.8
2018-08-25T08:52:24.191Z,52.9
2018-08-25T08:53:13.420Z,52.8
2018-08-25T08:54:03.256Z,52.9
2018-08-25T08:54:54.129Z,52.9
2018-08-25T08:55:44.201Z,53
2018-08-25T08:56:34.247Z,53.1
2018-08-25T08:57:24.027Z,53.1
2018-08-25T08:58:14.334Z,53.1
2018-08-25T09:14:57.682Z,54.3
2018-08-25T09:15:47.485Z,54.3
2018-08-25T09:16:36.988Z,54.4
2018-08-25T09:17:27.917Z,54.4
2018-08-25T09:18:18.665Z,54.5
2018-08-25T09:19:08.315Z,54.6
2018-08-25T09:19:58.354Z,54.6
2018-08-25T09:20:47.848Z,54.7
2018-08-25T09:21:38.482Z,54.8
2018-08-25T09:22:27.439Z,54.8
2018-08-25T09:23:18.659Z,54.8
2018-08-25T09:24:08.711Z,54.9
2018-08-25T09:24:58.782Z,54.9
2018-08-25T09:25:48.831Z,55
2018-08-25T09:26:38.329Z,55.1
2018-08-25T09:27:29.250Z,55.1
2018-08-25T09:28:19.073Z,55.2
2018-08-25T09:29:09.117Z,55.3
2018-08-25T09:29:58.611Z,55.3
2018-08-25T09:30:49.234Z,55.3
2018-08-25T09:31:39.285Z,55.4
2018-08-25T09:32:29.080Z,55.4
2018-08-25T09:33:19.169Z,55.6
2018-08-25T09:34:09.241Z,55.6
2018-08-25T09:34:59.291Z,55.6
2018-08-25T09:35:50.187Z,55.7
2018-08-25T09:36:41.845Z,55.8
2018-08-25T09:37:29.769Z,55.8
2018-08-25T09:38:19.257Z,55.9
2018-08-25T09:39:09.895Z,55.9
2018-08-25T09:39:59.683Z,56
2018-08-25T09:40:49.445Z,56.1
2018-08-25T09:41:40.494Z,56.1
2018-08-25T09:42:29.867Z,56.2
2018-08-25T09:43:19.650Z,56.3
2018-08-25T09:44:09.722Z,56.3
2018-08-25T09:45:00.046Z,56.4
2018-08-25T09:45:50.656Z,56.4
2018-08-25T09:46:40.204Z,56.4
2018-08-25T09:47:29.676Z,56.5
2018-08-25T09:48:20.377Z,56.6
2018-08-25T09:49:10.677Z,56.6
2018-08-25T09:50:00.727Z,56.7
2018-08-25T09:50:51.064Z,56.8
2018-08-25T09:51:40.885Z,56.8
2018-08-25T09:52:30.951Z,56.9
2018-08-25T09:53:21.124Z,56.9
2018-08-25T09:54:11.041Z,57
2018-08-25T09:55:00.870Z,57.1
2018-08-25T09:55:50.640Z,57.1
2018-08-25T09:56:40.400Z,57.2
2018-08-25T09:57:31.307Z,57.3
2018-08-25T09:58:21.365Z,57.3
2018-08-25T09:59:11.752Z,57.3
2018-08-25T10:00:01.552Z,57.4
2018-08-25T10:00:51.585Z,57.5
2018-08-25T10:01:41.386Z,57.6
2018-08-25T10:02:31.708Z,57.6
2018-08-25T10:03:21.881Z,57.6
2018-08-25T10:04:11.592Z,57.7
2018-08-25T10:05:52.008Z,57.8
2018-08-25T10:06:41.793Z,57.9
2018-08-25T10:07:31.862Z,57.9
2018-08-25T10:08:22.187Z,57.9
2018-08-25T10:09:11.964Z,58
2018-08-25T10:10:02.576Z,58.1
2018-08-25T10:10:52.968Z,58.1
2018-08-25T10:11:42.448Z,58.1
2018-08-25T10:12:32.513Z,58.2
2018-08-25T10:13:22.303Z,58.3
2018-08-25T10:14:12.646Z,58.3
2018-08-25T10:15:03.038Z,58.4
2018-08-25T10:15:52.495Z,58.4
2018-08-25T10:16:42.641Z,58.5
2018-08-25T10:18:22.723Z,58.6
2018-08-25T10:19:13.025Z,58.6
2018-08-25T10:20:02.562Z,58.8
2018-08-25T10:20:52.860Z,58.8
2018-08-25T10:21:42.365Z,58.9
2018-08-25T10:22:33.515Z,58.9
2018-08-25T10:23:22.828Z,59
2018-08-25T10:24:12.890Z,59.1
2018-08-25T10:25:03.807Z,59.1
2018-08-25T10:25:53.797Z,59.2
2018-08-25T10:26:43.680Z,59.2
2018-08-25T10:27:33.391Z,59.3
2018-08-25T10:28:23.466Z,59.3
2018-08-25T10:29:13.856Z,59.4
2018-08-25T10:30:04.171Z,59.5
2018-08-25T10:30:53.683Z,59.6
2018-08-25T10:31:43.171Z,59.6
2018-08-25T10:32:33.490Z,59.7
2018-08-25T10:33:23.856Z,59.8
2018-08-25T10:34:13.933Z,59.8
2018-08-25T10:35:04.300Z,59.9
2018-08-25T10:35:54.652Z,59.9
2018-08-25T10:36:44.674Z,60
2018-08-25T10:37:33.897Z,60.1
2018-08-25T10:38:24.809Z,60.1
2018-08-25T10:39:14.599Z,60.2
2018-08-25T10:40:04.696Z,60.3
2018-08-25T10:40:54.165Z,60.3
2018-08-25T10:41:45.305Z,60.4
2018-08-25T10:42:34.596Z,60.5
2018-08-25T10:43:24.657Z,60.5
2018-08-25T10:44:15.031Z,60.6
2018-08-25T10:45:04.831Z,60.6
2018-08-25T10:45:54.842Z,60.7
2018-08-25T10:46:44.066Z,60.8
2018-08-25T10:47:34.960Z,60.8
2018-08-25T10:48:25.329Z,60.9
2018-08-25T10:49:15.186Z,60.9
2018-08-25T10:50:05.479Z,60.9
2018-08-25T10:50:55.229Z,61
2018-08-25T10:51:45.580Z,61.1
2018-08-25T10:52:35.697Z,61.1
2018-08-25T10:53:25.453Z,61.1
2018-08-25T10:54:15.812Z,61.2
2018-08-25T10:55:05.572Z,61.3
2018-08-25T10:55:55.925Z,61.3
2018-08-25T10:56:45.983Z,61.3
2018-08-25T10:57:36.297Z,61.4
2018-08-25T10:58:25.827Z,61.4
2018-08-25T10:59:16.146Z,61.4
2018-08-25T11:00:06.408Z,61.5
2018-08-25T11:00:58.429Z,61.6
2018-08-25T11:01:45.839Z,61.6
2018-08-25T11:02:35.864Z,61.6
2018-08-25T11:03:26.779Z,61.7
2018-08-25T11:04:16.560Z,61.8
2018-08-25T11:05:06.618Z,61.8
2018-08-25T11:05:56.744Z,61.8
2018-08-25T11:06:46.754Z,61.9
2018-08-25T11:07:36.791Z,61.9
2018-08-25T11:08:26.342Z,62
2018-08-25T11:09:16.975Z,62.1
2018-08-25T11:10:06.454Z,62.1
2018-08-25T11:10:56.531Z,62.1
2018-08-25T11:11:46.957Z,62.2
2018-08-25T11:12:36.939Z,62.3
2018-08-25T11:13:27.325Z,62.3
2018-08-25T11:14:17.365Z,62.4
2018-08-25T11:15:07.142Z,62.4
2018-08-25T11:15:57.198Z,62.5
2018-08-25T11:16:47.271Z,62.5
2018-08-25T11:17:37.315Z,62.6
2018-08-25T11:18:27.687Z,62.6
2018-08-25T11:19:17.757Z,62.7
2018-08-25T11:20:07.871Z,62.8
2018-08-25T11:20:57.596Z,62.8
2018-08-25T11:21:47.368Z,62.8
2018-08-25T11:22:37.801Z,62.9
2018-08-25T11:23:28.085Z,62.9
2018-08-25T11:24:16.983Z,63
2018-08-25T11:25:08.246Z,63
2018-08-25T11:25:57.999Z,63.1
2018-08-25T11:26:48.332Z,63.1
2018-08-25T11:27:38.410Z,63.1
2018-08-25T11:28:27.901Z,63.2
2018-08-25T11:29:19.338Z,63.3
2018-08-25T11:30:08.035Z,63.3
2018-08-25T11:30:57.812Z,63.4
2018-08-25T11:31:48.977Z,63.4
2018-08-25T11:32:38.503Z,63.4
2018-08-25T11:33:28.297Z,63.5
2018-08-25T11:34:18.917Z,63.6
2018-08-25T11:35:08.950Z,63.6
2018-08-25T11:35:58.497Z,63.6
2018-08-25T11:36:48.800Z,63.7
2018-08-25T11:37:40.230Z,63.8
2018-08-25T11:38:28.964Z,63.8
2018-08-25T11:39:19.044Z,63.8
2018-08-25T11:40:09.405Z,63.9
2018-08-25T11:40:59.761Z,63.9
2018-08-25T11:41:49.502Z,63.9
2018-08-25T11:42:39.011Z,64.1
2018-08-25T11:43:29.628Z,64.1
2018-08-25T11:44:19.131Z,64.1
2018-08-25T11:45:09.505Z,64.1
2018-08-25T11:45:59.536Z,64.2
2018-08-25T11:46:49.897Z,64.3
2018-08-25T11:47:39.420Z,64.3
2018-08-25T11:48:29.741Z,64.3
2018-08-25T11:49:19.271Z,64.4
2018-08-25T11:50:10.154Z,64.4
2018-08-25T11:51:00.241Z,64.4
2018-08-25T11:51:50.022Z,64.5
2018-08-25T11:52:40.378Z,64.5
2018-08-25T11:53:29.854Z,64.6
2018-08-25T11:54:20.500Z,64.6
2018-08-25T11:55:10.576Z,64.6
2018-08-25T11:56:00.929Z,64.7
2018-08-25T11:56:50.396Z,64.7
2018-08-25T11:57:40.184Z,64.8
2018-08-25T11:58:30.531Z,64.8
2018-08-25T11:59:20.310Z,64.8
2018-08-25T12:00:10.993Z,64.8
2018-08-25T12:01:01.026Z,64.8
2018-08-25T12:01:51.060Z,64.9
2018-08-25T12:02:41.173Z,64.9
2018-08-25T12:03:30.753Z,64.9
2018-08-25T12:04:19.855Z,65
2018-08-25T12:05:11.352Z,65
2018-08-25T12:06:01.162Z,65.1
2018-08-25T12:06:51.773Z,65.1
2018-08-25T12:07:40.966Z,65.1
2018-08-25T12:08:31.611Z,65.1